sensor_id;sensor_type;location;lat;lon;timestamp;P1;durP1;ratioP1;P2;durP2;ratioP2
74375;SDS011;62812;55.188;61.302;2023-08-17T00:01:58;25.70;;;14.68;;
74375;SDS011;62812;55.188;61.302;2023-08-17T00:04:25;26.70;;;14.52;;
74375;SDS011;62812;55.188;61.302;2023-08-17T00:06:53;24.08;;;14.30;;
74375;SDS011;62812;55.188;61.302;2023-08-17T00:09:20;31.42;;;14.35;;
74375;SDS011;62812;55.188;61.302;2023-08-17T00:11:48;23.08;;;13.88;;
74375;SDS011;62812;55.188;61.302;2023-08-17T00:14:14;24.38;;;14.68;;
74375;SDS011;62812;55.188;61.302;2023-08-17T00:16:41;23.83;;;13.77;;
74375;SDS011;62812;55.188;61.302;2023-08-17T00:19:08;24.63;;;14.70;;
74375;SDS011;62812;55.188;61.302;2023-08-17T00:21:36;22.75;;;13.13;;
74375;SDS011;62812;55.188;61.302;2023-08-17T00:24:06;20.90;;;13.52;;
74375;SDS011;62812;55.188;61.302;2023-08-17T00:28:59;20.85;;;12.07;;
74375;SDS011;62812;55.188;61.302;2023-08-17T00:31:26;23.63;;;12.80;;
74375;SDS011;62812;55.188;61.302;2023-08-17T00:33:53;22.75;;;12.95;;
74375;SDS011;62812;55.188;61.302;2023-08-17T00:36:21;23.30;;;12.85;;
74375;SDS011;62812;55.188;61.302;2023-08-17T00:38:48;21.48;;;13.57;;
74375;SDS011;62812;55.188;61.302;2023-08-17T00:41:16;21.52;;;11.45;;
74375;SDS011;62812;55.188;61.302;2023-08-17T00:43:43;20.80;;;12.75;;
74375;SDS011;62812;55.188;61.302;2023-08-17T00:46:11;21.33;;;12.45;;
74375;SDS011;62812;55.188;61.302;2023-08-17T00:48:40;18.48;;;11.40;;
74375;SDS011;62812;55.188;61.302;2023-08-17T00:51:07;21.73;;;12.23;;
74375;SDS011;62812;55.188;61.302;2023-08-17T00:53:35;20.30;;;11.90;;
74375;SDS011;62812;55.188;61.302;2023-08-17T00:56:01;20.85;;;11.45;;
74375;SDS011;62812;55.188;61.302;2023-08-17T00:58:31;20.33;;;11.65;;
74375;SDS011;62812;55.188;61.302;2023-08-17T01:00:58;19.42;;;11.48;;
74375;SDS011;62812;55.188;61.302;2023-08-17T01:03:25;19.83;;;12.07;;
74375;SDS011;62812;55.188;61.302;2023-08-17T01:05:54;21.55;;;11.90;;
74375;SDS011;62812;55.188;61.302;2023-08-17T01:08:22;19.10;;;11.38;;
74375;SDS011;62812;55.188;61.302;2023-08-17T01:10:52;19.70;;;11.77;;
74375;SDS011;62812;55.188;61.302;2023-08-17T01:13:25;19.10;;;11.43;;
74375;SDS011;62812;55.188;61.302;2023-08-17T01:16:01;19.27;;;11.35;;
74375;SDS011;62812;55.188;61.302;2023-08-17T01:18:31;21.33;;;11.55;;
74375;SDS011;62812;55.188;61.302;2023-08-17T01:21:00;18.65;;;11.40;;
74375;SDS011;62812;55.188;61.302;2023-08-17T01:23:34;19.58;;;11.82;;
74375;SDS011;62812;55.188;61.302;2023-08-17T01:26:01;21.42;;;12.07;;
74375;SDS011;62812;55.188;61.302;2023-08-17T01:28:27;23.33;;;12.18;;
74375;SDS011;62812;55.188;61.302;2023-08-17T01:30:59;23.17;;;12.05;;
74375;SDS011;62812;55.188;61.302;2023-08-17T01:33:31;21.85;;;11.75;;
74375;SDS011;62812;55.188;61.302;2023-08-17T01:36:04;18.60;;;11.32;;
74375;SDS011;62812;55.188;61.302;2023-08-17T01:38:38;18.88;;;11.45;;
74375;SDS011;62812;55.188;61.302;2023-08-17T01:41:07;21.13;;;11.73;;
74375;SDS011;62812;55.188;61.302;2023-08-17T01:43:40;19.90;;;11.85;;
74375;SDS011;62812;55.188;61.302;2023-08-17T01:46:12;20.88;;;11.70;;
74375;SDS011;62812;55.188;61.302;2023-08-17T01:48:40;19.38;;;12.05;;
74375;SDS011;62812;55.188;61.302;2023-08-17T01:51:07;22.02;;;11.93;;
74375;SDS011;62812;55.188;61.302;2023-08-17T01:53:33;23.88;;;12.07;;
74375;SDS011;62812;55.188;61.302;2023-08-17T01:56:02;21.75;;;11.15;;
74375;SDS011;62812;55.188;61.302;2023-08-17T01:58:29;21.30;;;11.50;;
74375;SDS011;62812;55.188;61.302;2023-08-17T02:00:56;29.67;;;14.73;;
74375;SDS011;62812;55.188;61.302;2023-08-17T02:03:23;36.78;;;16.05;;
74375;SDS011;62812;55.188;61.302;2023-08-17T02:05:50;49.33;;;20.52;;
74375;SDS011;62812;55.188;61.302;2023-08-17T02:08:16;62.33;;;21.00;;
74375;SDS011;62812;55.188;61.302;2023-08-17T02:10:43;50.42;;;18.90;;
74375;SDS011;62812;55.188;61.302;2023-08-17T02:13:12;37.63;;;16.83;;
74375;SDS011;62812;55.188;61.302;2023-08-17T02:15:38;38.63;;;16.23;;
74375;SDS011;62812;55.188;61.302;2023-08-17T02:18:07;35.28;;;16.13;;
74375;SDS011;62812;55.188;61.302;2023-08-17T02:20:34;35.05;;;15.63;;
74375;SDS011;62812;55.188;61.302;2023-08-17T02:23:01;33.60;;;14.20;;
74375;SDS011;62812;55.188;61.302;2023-08-17T02:25:28;30.38;;;14.32;;
74375;SDS011;62812;55.188;61.302;2023-08-17T02:28:01;34.47;;;13.63;;
74375;SDS011;62812;55.188;61.302;2023-08-17T02:30:30;47.30;;;14.50;;
74375;SDS011;62812;55.188;61.302;2023-08-17T02:32:57;34.75;;;14.45;;
74375;SDS011;62812;55.188;61.302;2023-08-17T02:35:25;34.22;;;13.50;;
74375;SDS011;62812;55.188;61.302;2023-08-17T02:37:52;34.55;;;13.02;;
74375;SDS011;62812;55.188;61.302;2023-08-17T02:40:19;30.08;;;12.98;;
74375;SDS011;62812;55.188;61.302;2023-08-17T02:42:45;31.25;;;13.38;;
74375;SDS011;62812;55.188;61.302;2023-08-17T02:45:12;34.90;;;13.38;;
74375;SDS011;62812;55.188;61.302;2023-08-17T02:47:41;38.40;;;13.45;;
74375;SDS011;62812;55.188;61.302;2023-08-17T02:50:08;39.05;;;14.25;;
74375;SDS011;62812;55.188;61.302;2023-08-17T02:52:37;39.50;;;12.60;;
74375;SDS011;62812;55.188;61.302;2023-08-17T02:55:05;39.97;;;13.85;;
74375;SDS011;62812;55.188;61.302;2023-08-17T02:57:33;50.15;;;14.30;;
74375;SDS011;62812;55.188;61.302;2023-08-17T03:00:00;47.10;;;15.32;;
74375;SDS011;62812;55.188;61.302;2023-08-17T03:02:28;49.65;;;15.43;;
74375;SDS011;62812;55.188;61.302;2023-08-17T03:04:56;47.58;;;15.00;;
74375;SDS011;62812;55.188;61.302;2023-08-17T03:07:23;46.00;;;15.00;;
74375;SDS011;62812;55.188;61.302;2023-08-17T03:09:50;31.40;;;11.88;;
74375;SDS011;62812;55.188;61.302;2023-08-17T03:12:18;34.78;;;12.15;;
74375;SDS011;62812;55.188;61.302;2023-08-17T03:14:46;27.15;;;11.27;;
74375;SDS011;62812;55.188;61.302;2023-08-17T03:17:13;28.35;;;11.35;;
74375;SDS011;62812;55.188;61.302;2023-08-17T03:19:40;30.67;;;12.30;;
74375;SDS011;62812;55.188;61.302;2023-08-17T03:22:11;30.27;;;12.95;;
74375;SDS011;62812;55.188;61.302;2023-08-17T03:24:38;32.20;;;16.55;;
74375;SDS011;62812;55.188;61.302;2023-08-17T03:27:06;35.75;;;15.75;;
74375;SDS011;62812;55.188;61.302;2023-08-17T03:29:33;34.15;;;16.52;;
74375;SDS011;62812;55.188;61.302;2023-08-17T03:31:59;38.30;;;17.27;;
74375;SDS011;62812;55.188;61.302;2023-08-17T03:34:28;42.50;;;19.33;;
74375;SDS011;62812;55.188;61.302;2023-08-17T03:36:55;52.70;;;21.60;;
74375;SDS011;62812;55.188;61.302;2023-08-17T03:39:23;47.95;;;25.17;;
74375;SDS011;62812;55.188;61.302;2023-08-17T03:41:50;55.38;;;28.40;;
74375;SDS011;62812;55.188;61.302;2023-08-17T03:44:17;53.60;;;32.28;;
74375;SDS011;62812;55.188;61.302;2023-08-17T03:46:46;64.93;;;35.88;;
74375;SDS011;62812;55.188;61.302;2023-08-17T03:49:13;62.92;;;38.15;;
74375;SDS011;62812;55.188;61.302;2023-08-17T03:51:40;67.03;;;38.28;;
74375;SDS011;62812;55.188;61.302;2023-08-17T03:54:07;60.75;;;36.78;;
74375;SDS011;62812;55.188;61.302;2023-08-17T03:56:40;52.92;;;29.02;;
74375;SDS011;62812;55.188;61.302;2023-08-17T03:59:10;52.15;;;29.08;;
74375;SDS011;62812;55.188;61.302;2023-08-17T04:01:38;50.67;;;29.75;;
74375;SDS011;62812;55.188;61.302;2023-08-17T04:04:05;44.95;;;24.30;;
74375;SDS011;62812;55.188;61.302;2023-08-17T04:06:32;54.17;;;29.38;;
74375;SDS011;62812;55.188;61.302;2023-08-17T04:09:01;60.13;;;31.00;;
74375;SDS011;62812;55.188;61.302;2023-08-17T04:11:28;49.10;;;24.33;;
74375;SDS011;62812;55.188;61.302;2023-08-17T04:14:00;58.05;;;27.88;;
74375;SDS011;62812;55.188;61.302;2023-08-17T04:16:29;45.78;;;19.20;;
74375;SDS011;62812;55.188;61.302;2023-08-17T04:18:58;48.80;;;23.00;;
74375;SDS011;62812;55.188;61.302;2023-08-17T04:21:29;45.10;;;21.65;;
74375;SDS011;62812;55.188;61.302;2023-08-17T04:23:56;58.55;;;21.67;;
74375;SDS011;62812;55.188;61.302;2023-08-17T04:26:23;72.13;;;22.42;;
74375;SDS011;62812;55.188;61.302;2023-08-17T04:28:50;46.88;;;18.63;;
74375;SDS011;62812;55.188;61.302;2023-08-17T04:31:19;48.35;;;17.35;;
74375;SDS011;62812;55.188;61.302;2023-08-17T04:33:46;41.20;;;17.67;;
74375;SDS011;62812;55.188;61.302;2023-08-17T04:36:13;30.60;;;15.77;;
74375;SDS011;62812;55.188;61.302;2023-08-17T04:38:40;30.05;;;14.68;;
74375;SDS011;62812;55.188;61.302;2023-08-17T04:41:08;35.88;;;15.63;;
74375;SDS011;62812;55.188;61.302;2023-08-17T04:43:35;27.95;;;15.02;;
74375;SDS011;62812;55.188;61.302;2023-08-17T04:46:03;28.17;;;14.25;;
74375;SDS011;62812;55.188;61.302;2023-08-17T04:48:33;34.95;;;15.50;;
74375;SDS011;62812;55.188;61.302;2023-08-17T04:51:01;30.10;;;14.40;;
74375;SDS011;62812;55.188;61.302;2023-08-17T04:53:30;27.95;;;11.85;;
74375;SDS011;62812;55.188;61.302;2023-08-17T04:55:57;28.77;;;13.68;;
74375;SDS011;62812;55.188;61.302;2023-08-17T04:58:26;24.63;;;13.35;;
74375;SDS011;62812;55.188;61.302;2023-08-17T05:00:54;27.83;;;12.88;;
74375;SDS011;62812;55.188;61.302;2023-08-17T05:03:21;19.75;;;9.27;;
74375;SDS011;62812;55.188;61.302;2023-08-17T05:08:45;25.40;;;11.52;;
74375;SDS011;62812;55.188;61.302;2023-08-17T05:11:13;25.40;;;12.40;;
74375;SDS011;62812;55.188;61.302;2023-08-17T05:13:40;24.30;;;11.98;;
74375;SDS011;62812;55.188;61.302;2023-08-17T05:16:08;30.73;;;12.77;;
74375;SDS011;62812;55.188;61.302;2023-08-17T05:18:39;32.28;;;12.95;;
74375;SDS011;62812;55.188;61.302;2023-08-17T05:23:57;28.40;;;11.00;;
74375;SDS011;62812;55.188;61.302;2023-08-17T05:26:24;21.40;;;11.25;;
74375;SDS011;62812;55.188;61.302;2023-08-17T05:28:53;16.48;;;10.05;;
74375;SDS011;62812;55.188;61.302;2023-08-17T05:31:22;16.42;;;9.63;;
74375;SDS011;62812;55.188;61.302;2023-08-17T05:33:58;18.52;;;8.75;;
74375;SDS011;62812;55.188;61.302;2023-08-17T05:36:32;11.93;;;7.90;;
74375;SDS011;62812;55.188;61.302;2023-08-17T05:39:12;14.75;;;8.85;;
74375;SDS011;62812;55.188;61.302;2023-08-17T05:41:40;9.77;;;7.13;;
74375;SDS011;62812;55.188;61.302;2023-08-17T05:44:07;12.88;;;8.10;;
74375;SDS011;62812;55.188;61.302;2023-08-17T05:46:35;13.25;;;8.02;;
74375;SDS011;62812;55.188;61.302;2023-08-17T05:49:05;14.40;;;8.70;;
74375;SDS011;62812;55.188;61.302;2023-08-17T05:54:33;15.55;;;8.75;;
74375;SDS011;62812;55.188;61.302;2023-08-17T05:57:01;17.00;;;9.27;;
74375;SDS011;62812;55.188;61.302;2023-08-17T05:59:32;12.32;;;7.90;;
74375;SDS011;62812;55.188;61.302;2023-08-17T06:02:02;13.95;;;8.10;;
74375;SDS011;62812;55.188;61.302;2023-08-17T06:04:34;23.63;;;10.20;;
74375;SDS011;62812;55.188;61.302;2023-08-17T06:07:06;17.90;;;9.02;;
74375;SDS011;62812;55.188;61.302;2023-08-17T06:09:38;18.92;;;9.57;;
74375;SDS011;62812;55.188;61.302;2023-08-17T06:12:05;14.70;;;8.98;;
74375;SDS011;62812;55.188;61.302;2023-08-17T06:14:32;16.10;;;8.23;;
74375;SDS011;62812;55.188;61.302;2023-08-17T06:16:59;11.10;;;7.85;;
74375;SDS011;62812;55.188;61.302;2023-08-17T06:19:28;15.15;;;8.05;;
74375;SDS011;62812;55.188;61.302;2023-08-17T06:21:58;11.45;;;7.60;;
74375;SDS011;62812;55.188;61.302;2023-08-17T06:24:25;13.27;;;7.15;;
74375;SDS011;62812;55.188;61.302;2023-08-17T06:26:54;12.95;;;8.38;;
74375;SDS011;62812;55.188;61.302;2023-08-17T06:29:21;17.40;;;10.48;;
74375;SDS011;62812;55.188;61.302;2023-08-17T06:31:49;18.42;;;11.82;;
74375;SDS011;62812;55.188;61.302;2023-08-17T06:34:16;18.23;;;10.48;;
74375;SDS011;62812;55.188;61.302;2023-08-17T06:36:43;19.67;;;11.43;;
74375;SDS011;62812;55.188;61.302;2023-08-17T06:39:24;16.90;;;9.43;;
74375;SDS011;62812;55.188;61.302;2023-08-17T06:41:57;14.80;;;7.95;;
74375;SDS011;62812;55.188;61.302;2023-08-17T06:44:24;15.60;;;8.30;;
74375;SDS011;62812;55.188;61.302;2023-08-17T06:46:53;10.93;;;6.78;;
74375;SDS011;62812;55.188;61.302;2023-08-17T06:49:19;12.00;;;7.75;;
74375;SDS011;62812;55.188;61.302;2023-08-17T06:51:48;13.40;;;7.30;;
74375;SDS011;62812;55.188;61.302;2023-08-17T06:54:20;11.55;;;7.68;;
74375;SDS011;62812;55.188;61.302;2023-08-17T06:57:01;12.45;;;7.20;;
74375;SDS011;62812;55.188;61.302;2023-08-17T06:59:28;15.38;;;8.02;;
74375;SDS011;62812;55.188;61.302;2023-08-17T07:02:02;10.63;;;6.35;;
74375;SDS011;62812;55.188;61.302;2023-08-17T07:04:32;11.38;;;7.20;;
74375;SDS011;62812;55.188;61.302;2023-08-17T07:06:59;15.45;;;8.82;;
74375;SDS011;62812;55.188;61.302;2023-08-17T07:09:30;17.00;;;9.10;;
74375;SDS011;62812;55.188;61.302;2023-08-17T07:11:57;17.23;;;9.48;;
74375;SDS011;62812;55.188;61.302;2023-08-17T07:14:26;17.85;;;8.82;;
74375;SDS011;62812;55.188;61.302;2023-08-17T07:16:54;17.50;;;9.75;;
74375;SDS011;62812;55.188;61.302;2023-08-17T07:19:23;19.52;;;9.90;;
74375;SDS011;62812;55.188;61.302;2023-08-17T07:21:51;13.88;;;9.43;;
74375;SDS011;62812;55.188;61.302;2023-08-17T07:24:19;14.32;;;8.30;;
74375;SDS011;62812;55.188;61.302;2023-08-17T07:26:46;17.30;;;9.35;;
74375;SDS011;62812;55.188;61.302;2023-08-17T07:29:14;16.38;;;8.40;;
74375;SDS011;62812;55.188;61.302;2023-08-17T07:31:43;14.75;;;8.52;;
74375;SDS011;62812;55.188;61.302;2023-08-17T07:34:10;14.57;;;9.07;;
74375;SDS011;62812;55.188;61.302;2023-08-17T07:36:41;15.40;;;8.93;;
74375;SDS011;62812;55.188;61.302;2023-08-17T07:39:09;13.75;;;9.23;;
74375;SDS011;62812;55.188;61.302;2023-08-17T07:41:37;12.63;;;8.23;;
74375;SDS011;62812;55.188;61.302;2023-08-17T07:44:04;18.65;;;9.25;;
74375;SDS011;62812;55.188;61.302;2023-08-17T07:46:33;16.75;;;9.13;;
74375;SDS011;62812;55.188;61.302;2023-08-17T07:49:03;19.33;;;9.75;;
74375;SDS011;62812;55.188;61.302;2023-08-17T07:51:30;18.88;;;9.75;;
74375;SDS011;62812;55.188;61.302;2023-08-17T07:54:00;15.55;;;9.13;;
74375;SDS011;62812;55.188;61.302;2023-08-17T07:56:29;18.00;;;10.02;;
74375;SDS011;62812;55.188;61.302;2023-08-17T07:58:57;17.90;;;9.27;;
74375;SDS011;62812;55.188;61.302;2023-08-17T08:01:29;18.55;;;9.23;;
74375;SDS011;62812;55.188;61.302;2023-08-17T08:04:09;22.42;;;9.90;;
74375;SDS011;62812;55.188;61.302;2023-08-17T08:06:35;15.60;;;9.80;;
74375;SDS011;62812;55.188;61.302;2023-08-17T08:11:35;16.30;;;9.35;;
74375;SDS011;62812;55.188;61.302;2023-08-17T08:14:05;24.48;;;9.80;;
74375;SDS011;62812;55.188;61.302;2023-08-17T08:16:32;17.58;;;9.38;;
74375;SDS011;62812;55.188;61.302;2023-08-17T08:18:59;22.98;;;8.90;;
74375;SDS011;62812;55.188;61.302;2023-08-17T08:21:30;18.88;;;10.05;;
74375;SDS011;62812;55.188;61.302;2023-08-17T08:23:58;18.67;;;10.02;;
74375;SDS011;62812;55.188;61.302;2023-08-17T08:26:27;16.80;;;9.73;;
74375;SDS011;62812;55.188;61.302;2023-08-17T08:29:01;18.58;;;8.93;;
74375;SDS011;62812;55.188;61.302;2023-08-17T08:31:28;16.65;;;9.23;;
74375;SDS011;62812;55.188;61.302;2023-08-17T08:33:57;23.65;;;10.35;;
74375;SDS011;62812;55.188;61.302;2023-08-17T08:36:30;24.63;;;10.85;;
74375;SDS011;62812;55.188;61.302;2023-08-17T08:38:58;24.83;;;10.90;;
74375;SDS011;62812;55.188;61.302;2023-08-17T08:41:26;21.27;;;10.93;;
74375;SDS011;62812;55.188;61.302;2023-08-17T08:43:55;20.33;;;11.65;;
74375;SDS011;62812;55.188;61.302;2023-08-17T08:46:23;18.20;;;11.52;;
74375;SDS011;62812;55.188;61.302;2023-08-17T08:48:57;16.65;;;8.70;;
74375;SDS011;62812;55.188;61.302;2023-08-17T08:51:27;15.82;;;8.85;;
74375;SDS011;62812;55.188;61.302;2023-08-17T08:54:00;12.98;;;8.15;;
74375;SDS011;62812;55.188;61.302;2023-08-17T08:56:30;14.77;;;8.43;;
74375;SDS011;62812;55.188;61.302;2023-08-17T09:01:28;16.00;;;8.82;;
74375;SDS011;62812;55.188;61.302;2023-08-17T09:03:59;13.70;;;8.55;;
74375;SDS011;62812;55.188;61.302;2023-08-17T09:06:27;18.13;;;9.57;;
74375;SDS011;62812;55.188;61.302;2023-08-17T09:08:58;15.52;;;10.73;;
74375;SDS011;62812;55.188;61.302;2023-08-17T09:11:27;15.25;;;10.70;;
74375;SDS011;62812;55.188;61.302;2023-08-17T09:13:55;14.43;;;9.60;;
74375;SDS011;62812;55.188;61.302;2023-08-17T09:16:26;17.40;;;9.85;;
74375;SDS011;62812;55.188;61.302;2023-08-17T09:18:55;15.45;;;10.80;;
74375;SDS011;62812;55.188;61.302;2023-08-17T09:21:22;16.10;;;11.00;;
74375;SDS011;62812;55.188;61.302;2023-08-17T09:26:47;18.20;;;11.20;;
74375;SDS011;62812;55.188;61.302;2023-08-17T09:29:18;18.85;;;11.15;;
74375;SDS011;62812;55.188;61.302;2023-08-17T09:31:46;16.50;;;10.43;;
74375;SDS011;62812;55.188;61.302;2023-08-17T09:34:14;14.77;;;9.40;;
74375;SDS011;62812;55.188;61.302;2023-08-17T09:36:42;14.60;;;9.57;;
74375;SDS011;62812;55.188;61.302;2023-08-17T09:39:18;12.93;;;8.68;;
74375;SDS011;62812;55.188;61.302;2023-08-17T09:41:45;13.85;;;8.80;;
74375;SDS011;62812;55.188;61.302;2023-08-17T09:44:13;12.55;;;8.93;;
74375;SDS011;62812;55.188;61.302;2023-08-17T09:46:47;12.50;;;9.02;;
74375;SDS011;62812;55.188;61.302;2023-08-17T09:49:15;13.05;;;8.77;;
74375;SDS011;62812;55.188;61.302;2023-08-17T09:51:45;16.73;;;9.40;;
74375;SDS011;62812;55.188;61.302;2023-08-17T09:54:30;15.27;;;9.52;;
74375;SDS011;62812;55.188;61.302;2023-08-17T09:56:58;14.77;;;9.50;;
74375;SDS011;62812;55.188;61.302;2023-08-17T09:59:29;14.82;;;9.65;;
74375;SDS011;62812;55.188;61.302;2023-08-17T10:01:57;16.38;;;9.38;;
74375;SDS011;62812;55.188;61.302;2023-08-17T10:04:25;15.70;;;8.88;;
74375;SDS011;62812;55.188;61.302;2023-08-17T10:06:57;15.50;;;9.85;;
74375;SDS011;62812;55.188;61.302;2023-08-17T10:09:34;17.77;;;10.48;;
74375;SDS011;62812;55.188;61.302;2023-08-17T10:12:06;17.20;;;9.80;;
74375;SDS011;62812;55.188;61.302;2023-08-17T10:14:39;18.65;;;9.90;;
74375;SDS011;62812;55.188;61.302;2023-08-17T10:17:13;14.85;;;8.85;;
74375;SDS011;62812;55.188;61.302;2023-08-17T10:19:46;21.67;;;10.30;;
74375;SDS011;62812;55.188;61.302;2023-08-17T10:22:19;18.98;;;9.32;;
74375;SDS011;62812;55.188;61.302;2023-08-17T10:24:51;17.85;;;10.30;;
74375;SDS011;62812;55.188;61.302;2023-08-17T10:27:20;20.15;;;10.07;;
74375;SDS011;62812;55.188;61.302;2023-08-17T10:29:50;15.38;;;8.75;;
74375;SDS011;62812;55.188;61.302;2023-08-17T10:32:17;12.05;;;7.40;;
74375;SDS011;62812;55.188;61.302;2023-08-17T10:34:49;13.40;;;7.88;;
74375;SDS011;62812;55.188;61.302;2023-08-17T10:37:17;16.38;;;8.32;;
74375;SDS011;62812;55.188;61.302;2023-08-17T10:42:17;11.40;;;7.45;;
74375;SDS011;62812;55.188;61.302;2023-08-17T10:44:58;15.68;;;8.43;;
74375;SDS011;62812;55.188;61.302;2023-08-17T10:47:30;17.85;;;9.15;;
74375;SDS011;62812;55.188;61.302;2023-08-17T10:49:59;17.08;;;9.25;;
74375;SDS011;62812;55.188;61.302;2023-08-17T10:52:30;19.20;;;9.65;;
74375;SDS011;62812;55.188;61.302;2023-08-17T10:55:02;16.25;;;8.77;;
74375;SDS011;62812;55.188;61.302;2023-08-17T10:57:35;15.20;;;8.80;;
74375;SDS011;62812;55.188;61.302;2023-08-17T11:00:17;21.58;;;8.88;;
74375;SDS011;62812;55.188;61.302;2023-08-17T11:02:53;20.27;;;9.95;;
74375;SDS011;62812;55.188;61.302;2023-08-17T11:05:34;21.52;;;10.35;;
74375;SDS011;62812;55.188;61.302;2023-08-17T11:08:05;25.42;;;11.38;;
74375;SDS011;62812;55.188;61.302;2023-08-17T11:10:37;30.83;;;12.82;;
74375;SDS011;62812;55.188;61.302;2023-08-17T11:13:05;31.92;;;12.25;;
74375;SDS011;62812;55.188;61.302;2023-08-17T11:15:36;24.90;;;11.02;;
74375;SDS011;62812;55.188;61.302;2023-08-17T11:18:08;23.58;;;10.40;;
74375;SDS011;62812;55.188;61.302;2023-08-17T11:20:36;25.88;;;11.57;;
74375;SDS011;62812;55.188;61.302;2023-08-17T11:23:06;27.25;;;11.60;;
74375;SDS011;62812;55.188;61.302;2023-08-17T11:25:35;21.23;;;11.40;;
74375;SDS011;62812;55.188;61.302;2023-08-17T11:28:05;21.38;;;11.70;;
74375;SDS011;62812;55.188;61.302;2023-08-17T11:30:39;23.13;;;11.35;;
74375;SDS011;62812;55.188;61.302;2023-08-17T11:33:11;23.88;;;12.02;;
74375;SDS011;62812;55.188;61.302;2023-08-17T11:35:39;30.48;;;12.38;;
74375;SDS011;62812;55.188;61.302;2023-08-17T11:38:07;22.92;;;12.00;;
74375;SDS011;62812;55.188;61.302;2023-08-17T11:40:34;27.65;;;13.88;;
74375;SDS011;62812;55.188;61.302;2023-08-17T11:43:03;25.63;;;12.82;;
74375;SDS011;62812;55.188;61.302;2023-08-17T11:45:32;21.27;;;11.25;;
74375;SDS011;62812;55.188;61.302;2023-08-17T11:48:00;23.20;;;11.70;;
74375;SDS011;62812;55.188;61.302;2023-08-17T11:50:29;21.90;;;11.13;;
74375;SDS011;62812;55.188;61.302;2023-08-17T11:52:58;24.38;;;11.68;;
74375;SDS011;62812;55.188;61.302;2023-08-17T11:55:26;30.98;;;12.82;;
74375;SDS011;62812;55.188;61.302;2023-08-17T11:57:53;36.22;;;12.82;;
74375;SDS011;62812;55.188;61.302;2023-08-17T12:00:21;26.70;;;13.38;;
74375;SDS011;62812;55.188;61.302;2023-08-17T12:02:53;27.23;;;12.68;;
74375;SDS011;62812;55.188;61.302;2023-08-17T12:05:22;28.92;;;12.57;;
74375;SDS011;62812;55.188;61.302;2023-08-17T12:07:49;29.48;;;13.15;;
74375;SDS011;62812;55.188;61.302;2023-08-17T12:10:17;25.67;;;13.93;;
74375;SDS011;62812;55.188;61.302;2023-08-17T12:12:46;33.58;;;17.20;;
74375;SDS011;62812;55.188;61.302;2023-08-17T12:16:14;33.00;;;17.92;;
74375;SDS011;62812;55.188;61.302;2023-08-17T12:18:45;33.65;;;16.58;;
74375;SDS011;62812;55.188;61.302;2023-08-17T12:21:13;27.02;;;14.35;;
74375;SDS011;62812;55.188;61.302;2023-08-17T12:23:41;31.85;;;16.13;;
74375;SDS011;62812;55.188;61.302;2023-08-17T12:26:19;30.02;;;15.60;;
74375;SDS011;62812;55.188;61.302;2023-08-17T12:28:46;29.23;;;15.73;;
74375;SDS011;62812;55.188;61.302;2023-08-17T12:33:48;21.85;;;12.55;;
74375;SDS011;62812;55.188;61.302;2023-08-17T12:38:43;20.27;;;11.23;;
74375;SDS011;62812;55.188;61.302;2023-08-17T12:41:12;20.73;;;12.13;;
74375;SDS011;62812;55.188;61.302;2023-08-17T12:43:39;21.95;;;12.38;;
74375;SDS011;62812;55.188;61.302;2023-08-17T12:46:06;31.95;;;14.70;;
74375;SDS011;62812;55.188;61.302;2023-08-17T12:48:33;29.08;;;13.63;;
74375;SDS011;62812;55.188;61.302;2023-08-17T12:51:01;27.92;;;13.73;;
74375;SDS011;62812;55.188;61.302;2023-08-17T12:53:29;26.50;;;12.57;;
74375;SDS011;62812;55.188;61.302;2023-08-17T12:55:56;28.33;;;13.80;;
74375;SDS011;62812;55.188;61.302;2023-08-17T12:58:27;31.67;;;14.95;;
74375;SDS011;62812;55.188;61.302;2023-08-17T13:00:53;28.80;;;14.43;;
74375;SDS011;62812;55.188;61.302;2023-08-17T13:03:23;31.10;;;14.88;;
74375;SDS011;62812;55.188;61.302;2023-08-17T13:05:51;29.17;;;15.23;;
74375;SDS011;62812;55.188;61.302;2023-08-17T13:10:47;51.35;;;17.42;;
74375;SDS011;62812;55.188;61.302;2023-08-17T13:13:16;44.25;;;18.10;;
74375;SDS011;62812;55.188;61.302;2023-08-17T13:15:43;47.28;;;18.83;;
74375;SDS011;62812;55.188;61.302;2023-08-17T13:18:13;46.47;;;18.55;;
74375;SDS011;62812;55.188;61.302;2023-08-17T13:20:41;44.17;;;19.33;;
74375;SDS011;62812;55.188;61.302;2023-08-17T13:23:12;44.03;;;18.33;;
74375;SDS011;62812;55.188;61.302;2023-08-17T13:25:48;50.35;;;18.98;;
74375;SDS011;62812;55.188;61.302;2023-08-17T13:28:16;43.40;;;18.40;;
74375;SDS011;62812;55.188;61.302;2023-08-17T13:30:46;48.45;;;20.65;;
74375;SDS011;62812;55.188;61.302;2023-08-17T13:33:14;51.63;;;20.88;;
74375;SDS011;62812;55.188;61.302;2023-08-17T13:35:43;53.20;;;20.88;;
74375;SDS011;62812;55.188;61.302;2023-08-17T13:38:10;49.17;;;19.77;;
74375;SDS011;62812;55.188;61.302;2023-08-17T13:40:38;39.33;;;16.80;;
74375;SDS011;62812;55.188;61.302;2023-08-17T13:43:07;46.45;;;18.55;;
74375;SDS011;62812;55.188;61.302;2023-08-17T13:45:38;45.28;;;18.08;;
74375;SDS011;62812;55.188;61.302;2023-08-17T13:48:06;44.40;;;16.70;;
74375;SDS011;62812;55.188;61.302;2023-08-17T13:50:33;39.53;;;16.55;;
74375;SDS011;62812;55.188;61.302;2023-08-17T13:53:00;37.53;;;16.35;;
74375;SDS011;62812;55.188;61.302;2023-08-17T13:55:28;36.53;;;16.08;;
74375;SDS011;62812;55.188;61.302;2023-08-17T13:57:57;36.17;;;15.38;;
74375;SDS011;62812;55.188;61.302;2023-08-17T14:00:26;36.35;;;16.77;;
74375;SDS011;62812;55.188;61.302;2023-08-17T14:02:54;36.85;;;17.10;;
74375;SDS011;62812;55.188;61.302;2023-08-17T14:05:23;34.60;;;16.00;;
74375;SDS011;62812;55.188;61.302;2023-08-17T14:07:53;39.00;;;16.13;;
74375;SDS011;62812;55.188;61.302;2023-08-17T14:10:22;33.38;;;15.57;;
74375;SDS011;62812;55.188;61.302;2023-08-17T14:12:49;30.85;;;16.10;;
74375;SDS011;62812;55.188;61.302;2023-08-17T14:15:16;31.77;;;15.70;;
74375;SDS011;62812;55.188;61.302;2023-08-17T14:17:44;38.22;;;15.60;;
74375;SDS011;62812;55.188;61.302;2023-08-17T14:20:11;31.35;;;14.27;;
74375;SDS011;62812;55.188;61.302;2023-08-17T14:22:39;32.53;;;14.68;;
74375;SDS011;62812;55.188;61.302;2023-08-17T14:25:07;32.60;;;14.45;;
74375;SDS011;62812;55.188;61.302;2023-08-17T14:27:34;27.58;;;13.57;;
74375;SDS011;62812;55.188;61.302;2023-08-17T14:30:00;26.10;;;13.57;;
74375;SDS011;62812;55.188;61.302;2023-08-17T14:34:58;30.70;;;13.40;;
74375;SDS011;62812;55.188;61.302;2023-08-17T14:37:25;46.33;;;21.58;;
74375;SDS011;62812;55.188;61.302;2023-08-17T14:39:53;32.10;;;16.35;;
74375;SDS011;62812;55.188;61.302;2023-08-17T14:42:20;32.33;;;14.45;;
74375;SDS011;62812;55.188;61.302;2023-08-17T14:44:47;30.35;;;15.27;;
74375;SDS011;62812;55.188;61.302;2023-08-17T14:47:13;32.90;;;14.45;;
74375;SDS011;62812;55.188;61.302;2023-08-17T14:49:40;31.55;;;11.75;;
74375;SDS011;62812;55.188;61.302;2023-08-17T14:52:09;30.23;;;13.82;;
74375;SDS011;62812;55.188;61.302;2023-08-17T14:54:35;29.13;;;13.32;;
74375;SDS011;62812;55.188;61.302;2023-08-17T14:57:02;26.55;;;13.02;;